Time;durP1;ratioP1;P1;durP2;ratioP2;P2;SDS_P1;SDS_P2;PMS_P1;PMS_P2;Temp;Humidity;BMP_temperature;BMP_pressure;BME280_temperature;BME280_humidity;BME280_pressure;Samples;Min_cycle;Max_cycle;Signal;HPM_P1;HPM_P2
2021/10/07 00:01:41;;;;;;;1.70;0.90;;;;;;;;;;4988157;28;20096;-54
2021/10/07 00:04:08;;;;;;;0.90;0.90;;;;;;;;;;4985911;28;20096;-54
2021/10/07 00:06:35;;;;;;;1.23;1.23;;;;;;;;;;4988554;28;20044;-54
2021/10/07 00:09:04;;;;;;;1.00;1.00;;;;;;;;;;4990150;28;20034;-55
2021/10/07 00:11:31;;;;;;;0.90;0.90;;;;;;;;;;4989567;28;20506;-55
2021/10/07 00:13:58;;;;;;;0.90;0.90;;;;;;;;;;4990743;28;20035;-55
2021/10/07 00:16:24;;;;;;;1.27;1.17;;;;;;;;;;4989481;28;20034;-54
2021/10/07 00:18:52;;;;;;;0.80;0.80;;;;;;;;;;4989566;28;20053;-55
2021/10/07 00:21:19;;;;;;;1.08;0.80;;;;;;;;;;4987807;28;20089;-55
2021/10/07 00:26:25;;;;;;;0.80;0.80;;;;;;;;;;4994143;28;20042;-53
2021/10/07 00:28:55;;;;;;;0.80;0.80;;;;;;;;;;4992833;28;20049;-54
2021/10/07 00:31:23;;;;;;;0.80;0.80;;;;;;;;;;4993594;28;20125;-54
2021/10/07 00:39:04;;;;;;;0.90;0.90;;;;;;;;;;4993979;28;20045;-54
2021/10/07 00:41:32;;;;;;;0.90;0.90;;;;;;;;;;4993329;28;20691;-53
2021/10/07 00:44:05;;;;;;;0.90;0.90;;;;;;;;;;4993877;28;20035;-55
2021/10/07 00:46:32;;;;;;;;;;;;;;;;;;4992558;28;20065;-53
2021/10/07 00:49:00;;;;;;;0.95;0.90;;;;;;;;;;4992242;28;19941;-54
2021/10/07 00:51:28;;;;;;;1.00;1.00;;;;;;;;;;4993866;28;20073;-55
2021/10/07 00:53:55;;;;;;;1.10;1.10;;;;;;;;;;4993629;28;20070;-54
2021/10/07 00:56:21;;;;;;;1.38;1.38;;;;;;;;;;4993819;28;20038;-54
2021/10/07 00:58:48;;;;;;;4.90;4.53;;;;;;;;;;4992111;28;20035;-54
2021/10/07 01:01:15;;;;;;;4.43;4.28;;;;;;;;;;4992108;28;20105;-53
2021/10/07 01:03:42;;;;;;;2.45;2.05;;;;;;;;;;4993536;28;20038;-54
2021/10/07 01:06:09;;;;;;;3.45;3.35;;;;;;;;;;4990441;28;20140;-54
2021/10/07 01:08:35;;;;;;;1.88;1.80;;;;;;;;;;4993129;28;20435;-54
2021/10/07 01:11:02;;;;;;;1.42;1.42;;;;;;;;;;4992943;28;20069;-55
2021/10/07 01:13:29;;;;;;;1.42;1.42;;;;;;;;;;4992285;28;20038;-53
2021/10/07 01:16:02;;;;;;;2.10;2.00;;;;;;;;;;4992128;28;20046;-53
2021/10/07 01:18:29;;;;;;;1.35;1.35;;;;;;;;;;4989760;28;20043;-54
2021/10/07 01:20:55;;;;;;;1.10;1.10;;;;;;;;;;4991251;28;20503;-54
2021/10/07 01:23:22;;;;;;;1.10;1.00;;;;;;;;;;4992503;28;20080;-52
2021/10/07 01:25:49;;;;;;;0.98;0.98;;;;;;;;;;4991752;28;20108;-52
2021/10/07 01:28:16;;;;;;;0.80;0.80;;;;;;;;;;4990992;28;20030;-52
2021/10/07 01:30:43;;;;;;;1.35;1.08;;;;;;;;;;4985680;28;20078;-52
2021/10/07 01:33:15;;;;;;;1.17;1.17;;;;;;;;;;4990845;28;20092;-53
2021/10/07 01:35:41;;;;;;;0.90;0.90;;;;;;;;;;4992307;28;20066;-53
2021/10/07 01:38:08;;;;;;;0.80;0.80;;;;;;;;;;4985391;28;20042;-53
2021/10/07 01:40:34;;;;;;;0.90;0.90;;;;;;;;;;4992117;28;20054;-52
2021/10/07 01:43:01;;;;;;;0.98;0.90;;;;;;;;;;4990384;28;20129;-53
2021/10/07 01:45:28;;;;;;;0.90;0.90;;;;;;;;;;4990904;28;20042;-53
2021/10/07 01:47:56;;;;;;;0.88;0.88;;;;;;;;;;4991729;28;20062;-53
2021/10/07 01:50:23;;;;;;;1.00;0.90;;;;;;;;;;4990543;28;20039;-53
2021/10/07 01:52:50;;;;;;;0.90;0.90;;;;;;;;;;4992186;28;20100;-53
2021/10/07 01:55:16;;;;;;;0.80;0.80;;;;;;;;;;4991158;28;20034;-53
2021/10/07 01:57:43;;;;;;;0.98;0.98;;;;;;;;;;4991090;28;20097;-53
2021/10/07 02:00:11;;;;;;;1.40;0.90;;;;;;;;;;4992390;28;20169;-54
2021/10/07 02:02:38;;;;;;;3.13;0.90;;;;;;;;;;4990264;28;20046;-54
2021/10/07 02:05:05;;;;;;;1.10;1.00;;;;;;;;;;4992549;28;20467;-53
2021/10/07 02:07:32;;;;;;;1.05;0.80;;;;;;;;;;4990468;28;20475;-53
2021/10/07 02:09:59;;;;;;;0.90;0.90;;;;;;;;;;4992881;28;20045;-52
2021/10/07 02:12:27;;;;;;;0.80;0.80;;;;;;;;;;4991725;28;20128;-53
2021/10/07 02:14:53;;;;;;;1.50;0.90;;;;;;;;;;4990055;28;20478;-53
2021/10/07 02:17:20;;;;;;;1.42;0.82;;;;;;;;;;4992034;28;20042;-53
2021/10/07 02:19:47;;;;;;;0.80;0.80;;;;;;;;;;4989981;28;20046;-53
2021/10/07 02:22:13;;;;;;;0.90;0.90;;;;;;;;;;4988249;28;20054;-53
2021/10/07 02:24:40;;;;;;;0.80;0.80;;;;;;;;;;4992519;28;20047;-53
2021/10/07 02:27:07;;;;;;;1.48;0.90;;;;;;;;;;4989956;28;20052;-53
2021/10/07 02:29:34;;;;;;;2.72;0.82;;;;;;;;;;4990391;28;20069;-52
2021/10/07 02:32:00;;;;;;;0.98;0.98;;;;;;;;;;4991203;28;20034;-53
2021/10/07 02:34:27;;;;;;;0.90;0.90;;;;;;;;;;4990276;28;20061;-52
2021/10/07 02:36:54;;;;;;;1.00;1.00;;;;;;;;;;4991708;28;20069;-53
2021/10/07 02:39:21;;;;;;;1.40;1.30;;;;;;;;;;4989789;28;20538;-52
2021/10/07 02:41:47;;;;;;;2.20;2.20;;;;;;;;;;4990050;28;20446;-54
2021/10/07 02:44:14;;;;;;;3.65;3.65;;;;;;;;;;4990185;28;20455;-54
2021/10/07 02:46:41;;;;;;;3.08;3.08;;;;;;;;;;4988985;28;20125;-54
2021/10/07 02:49:07;;;;;;;3.55;3.45;;;;;;;;;;4992621;28;20042;-52
2021/10/07 02:51:34;;;;;;;2.85;2.85;;;;;;;;;;4985594;28;20073;-54
2021/10/07 02:54:01;;;;;;;1.70;1.60;;;;;;;;;;4989232;28;20062;-54
2021/10/07 02:56:28;;;;;;;1.80;1.17;;;;;;;;;;4990798;28;20040;-53
2021/10/07 02:58:55;;;;;;;1.05;0.93;;;;;;;;;;4987804;28;20034;-53
2021/10/07 03:01:23;;;;;;;1.00;1.00;;;;;;;;;;4991328;28;20493;-52
2021/10/07 03:03:51;;;;;;;1.00;1.00;;;;;;;;;;4989636;28;20034;-53
2021/10/07 03:06:17;;;;;;;1.00;1.00;;;;;;;;;;4989651;28;20489;-52
2021/10/07 03:08:44;;;;;;;2.67;1.27;;;;;;;;;;4990525;28;20046;-54
2021/10/07 03:11:11;;;;;;;0.93;0.90;;;;;;;;;;4990847;28;20125;-53
2021/10/07 03:13:38;;;;;;;2.97;0.90;;;;;;;;;;5022058;28;20422;-53
2021/10/07 03:16:05;;;;;;;1.67;0.90;;;;;;;;;;4988714;28;20494;-53
2021/10/07 03:18:31;;;;;;;0.93;0.90;;;;;;;;;;4989467;28;20093;-53
2021/10/07 03:20:58;;;;;;;2.05;0.90;;;;;;;;;;4991135;28;20150;-53
2021/10/07 03:23:25;;;;;;;0.90;0.90;;;;;;;;;;4988357;28;20054;-54
2021/10/07 03:25:52;;;;;;;2.17;0.90;;;;;;;;;;4990893;28;20130;-52
2021/10/07 03:28:18;;;;;;;0.90;0.90;;;;;;;;;;4986561;28;20052;-52
2021/10/07 03:30:45;;;;;;;0.95;0.95;;;;;;;;;;4988918;28;20395;-52
2021/10/07 03:33:16;;;;;;;1.30;0.90;;;;;;;;;;4990847;28;21071;-53
2021/10/07 03:35:43;;;;;;;1.02;0.93;;;;;;;;;;4989228;28;20054;-53
2021/10/07 03:38:09;;;;;;;1.00;1.00;;;;;;;;;;4990364;28;20052;-53
2021/10/07 03:40:36;;;;;;;0.95;0.95;;;;;;;;;;4988904;28;20044;-53
2021/10/07 03:43:03;;;;;;;0.90;0.90;;;;;;;;;;4988076;28;20193;-54
2021/10/07 03:45:30;;;;;;;3.92;1.10;;;;;;;;;;4990550;28;20526;-53
2021/10/07 03:47:56;;;;;;;2.22;1.00;;;;;;;;;;4987323;28;20133;-52
2021/10/07 03:50:24;;;;;;;1.85;0.90;;;;;;;;;;4988030;28;20112;-53
2021/10/07 03:52:50;;;;;;;1.27;1.25;;;;;;;;;;4989003;28;20129;-53
2021/10/07 03:55:17;;;;;;;0.90;0.90;;;;;;;;;;4980084;28;20141;-52
2021/10/07 03:57:44;;;;;;;1.58;0.90;;;;;;;;;;4980395;28;20038;-53
2021/10/07 04:00:11;;;;;;;1.02;0.90;;;;;;;;;;4988352;28;20034;-53
2021/10/07 04:02:38;;;;;;;2.67;1.00;;;;;;;;;;4988684;28;20069;-52
2021/10/07 04:05:05;;;;;;;0.95;0.90;;;;;;;;;;4990409;28;20056;-54
2021/10/07 04:07:32;;;;;;;1.00;1.00;;;;;;;;;;4988997;28;20096;-53
2021/10/07 04:09:59;;;;;;;1.10;1.10;;;;;;;;;;4990409;28;20050;-54
2021/10/07 04:12:26;;;;;;;2.35;1.00;;;;;;;;;;4986750;28;20041;-52
2021/10/07 04:14:53;;;;;;;1.33;0.98;;;;;;;;;;4977321;28;20081;-53
2021/10/07 04:17:20;;;;;;;1.38;1.27;;;;;;;;;;4989758;28;20379;-53
2021/10/07 04:19:46;;;;;;;1.00;1.00;;;;;;;;;;4986571;28;20415;-52
2021/10/07 04:22:13;;;;;;;4.72;1.10;;;;;;;;;;4990213;28;20133;-54
2021/10/07 04:24:40;;;;;;;2.47;2.38;;;;;;;;;;4986905;28;20041;-54
2021/10/07 04:27:07;;;;;;;3.35;3.35;;;;;;;;;;4987991;28;20074;-52
2021/10/07 04:29:33;;;;;;;3.63;3.53;;;;;;;;;;4989424;28;20054;-53
2021/10/07 04:32:01;;;;;;;2.53;2.53;;;;;;;;;;4987318;28;20042;-53
2021/10/07 04:34:28;;;;;;;3.13;3.10;;;;;;;;;;4989017;28;20650;-53
2021/10/07 04:36:55;;;;;;;2.55;2.33;;;;;;;;;;4987496;28;20049;-54
2021/10/07 04:39:21;;;;;;;3.10;3.00;;;;;;;;;;4989545;28;20035;-54
2021/10/07 04:41:48;;;;;;;1.67;1.67;;;;;;;;;;4989393;28;20046;-53
2021/10/07 04:44:15;;;;;;;2.33;2.33;;;;;;;;;;4987973;28;20046;-53
2021/10/07 04:46:42;;;;;;;3.35;3.35;;;;;;;;;;4991018;28;20403;-53
2021/10/07 04:49:09;;;;;;;5.68;5.57;;;;;;;;;;4988483;28;20040;-53
2021/10/07 04:51:36;;;;;;;5.70;5.70;;;;;;;;;;4989256;28;20049;-53
2021/10/07 04:54:02;;;;;;;5.65;5.25;;;;;;;;;;4989852;28;20088;-53
2021/10/07 04:56:29;;;;;;;1.38;1.38;;;;;;;;;;4983355;28;20037;-53
2021/10/07 04:58:56;;;;;;;4.72;4.63;;;;;;;;;;4982909;28;20065;-54
2021/10/07 05:01:23;;;;;;;6.90;6.90;;;;;;;;;;4989024;28;20041;-53
2021/10/07 05:03:50;;;;;;;6.22;6.22;;;;;;;;;;4988782;28;20061;-53
2021/10/07 05:06:17;;;;;;;4.28;4.05;;;;;;;;;;4989810;28;20042;-53
2021/10/07 05:08:44;;;;;;;2.85;2.85;;;;;;;;;;4986123;28;20046;-53
2021/10/07 05:11:11;;;;;;;1.40;1.40;;;;;;;;;;4992078;28;20053;-54
2021/10/07 05:13:37;;;;;;;4.20;4.20;;;;;;;;;;4984111;28;20098;-53
2021/10/07 05:16:04;;;;;;;1.80;1.80;;;;;;;;;;4982137;28;20100;-54
2021/10/07 05:18:31;;;;;;;2.40;1.00;;;;;;;;;;4991417;28;20034;-55
2021/10/07 05:20:58;;;;;;;1.17;1.08;;;;;;;;;;4991863;28;20049;-53
2021/10/07 05:23:25;;;;;;;3.05;3.05;;;;;;;;;;4992070;28;20039;-54
2021/10/07 05:25:51;;;;;;;3.08;3.08;;;;;;;;;;4992753;28;20077;-54
2021/10/07 05:28:18;;;;;;;2.88;2.70;;;;;;;;;;4990826;28;20093;-53
2021/10/07 05:30:45;;;;;;;3.80;3.78;;;;;;;;;;4992615;28;20046;-53
2021/10/07 05:33:11;;;;;;;4.03;3.85;;;;;;;;;;4991776;28;20030;-53
2021/10/07 05:35:38;;;;;;;4.20;3.95;;;;;;;;;;4992369;28;20510;-53
2021/10/07 05:38:04;;;;;;;3.13;3.13;;;;;;;;;;4990544;28;20049;-54
2021/10/07 05:40:31;;;;;;;4.85;4.85;;;;;;;;;;4989719;28;20034;-52
2021/10/07 05:42:58;;;;;;;6.20;6.20;;;;;;;;;;4992867;28;20073;-53
2021/10/07 05:45:24;;;;;;;4.05;4.05;;;;;;;;;;4991864;28;20046;-52
2021/10/07 05:47:51;;;;;;;7.05;6.93;;;;;;;;;;4991407;28;20069;-54
2021/10/07 05:50:18;;;;;;;5.47;5.47;;;;;;;;;;4992600;28;20510;-53
2021/10/07 05:52:45;;;;;;;6.97;6.97;;;;;;;;;;4990941;28;20062;-54
2021/10/07 05:55:11;;;;;;;5.80;5.72;;;;;;;;;;4988294;28;20038;-53
2021/10/07 05:57:38;;;;;;;4.90;4.90;;;;;;;;;;4992181;28;20444;-54
2021/10/07 06:00:06;;;;;;;4.50;4.50;;;;;;;;;;4980287;28;20075;-54
2021/10/07 06:02:36;;;;;;;4.28;4.28;;;;;;;;;;4992405;28;20069;-54
2021/10/07 06:05:04;;;;;;;6.57;6.57;;;;;;;;;;4989801;28;20038;-54
2021/10/07 06:07:31;;;;;;;6.40;6.40;;;;;;;;;;4991207;28;20061;-54
2021/10/07 06:09:57;;;;;;;6.72;6.72;;;;;;;;;;4992205;28;20502;-54
2021/10/07 06:12:25;;;;;;;6.97;6.97;;;;;;;;;;4992987;28;20464;-53
2021/10/07 06:14:51;;;;;;;7.20;7.20;;;;;;;;;;4992209;28;20069;-54
2021/10/07 06:17:18;;;;;;;6.82;6.80;;;;;;;;;;4990927;28;20549;-52
2021/10/07 06:19:47;;;;;;;7.18;7.07;;;;;;;;;;4990218;28;20140;-54
2021/10/07 06:22:14;;;;;;;5.72;5.72;;;;;;;;;;4990549;28;20482;-52
2021/10/07 06:24:41;;;;;;;5.28;5.28;;;;;;;;;;5021803;28;20100;-53
2021/10/07 06:27:08;;;;;;;5.63;5.63;;;;;;;;;;4992157;28;20039;-54
2021/10/07 06:29:35;;;;;;;6.53;6.43;;;;;;;;;;4990014;28;20041;-54
2021/10/07 06:32:02;;;;;;;6.60;6.60;;;;;;;;;;4975379;28;20130;-54
2021/10/07 06:34:28;;;;;;;7.78;7.78;;;;;;;;;;4991305;28;20360;-53
2021/10/07 06:36:55;;;;;;;2.92;2.83;;;;;;;;;;4990004;28;20062;-53
2021/10/07 06:39:22;;;;;;;9.50;9.35;;;;;;;;;;4991990;28;20062;-53
2021/10/07 06:41:48;;;;;;;8.90;8.90;;;;;;;;;;4990698;28;20045;-54
2021/10/07 06:44:15;;;;;;;8.68;8.68;;;;;;;;;;4990381;28;20034;-53
2021/10/07 06:46:42;;;;;;;8.50;8.50;;;;;;;;;;4991243;28;20081;-53
2021/10/07 06:49:09;;;;;;;4.95;4.95;;;;;;;;;;4990626;28;20118;-53
2021/10/07 06:51:35;;;;;;;1.30;1.30;;;;;;;;;;4991266;28;20045;-51
2021/10/07 06:54:02;;;;;;;6.47;6.47;;;;;;;;;;4989769;28;20043;-54
2021/10/07 06:56:29;;;;;;;7.30;7.30;;;;;;;;;;4989399;28;20062;-53
2021/10/07 06:58:56;;;;;;;5.75;5.75;;;;;;;;;;4991123;28;20130;-54
2021/10/07 07:01:24;;;;;;;5.63;5.60;;;;;;;;;;4989363;28;20062;-53
2021/10/07 07:03:52;;;;;;;1.30;1.30;;;;;;;;;;4977771;28;20105;-54
2021/10/07 07:06:24;;;;;;;1.45;1.45;;;;;;;;;;4990070;28;20045;-53
2021/10/07 07:08:51;;;;;;;1.30;1.30;;;;;;;;;;4989554;28;20042;-53
2021/10/07 07:11:18;;;;;;;5.50;5.50;;;;;;;;;;4991064;28;20468;-53
2021/10/07 07:13:45;;;;;;;5.55;5.55;;;;;;;;;;4989925;28;20046;-53
2021/10/07 07:16:12;;;;;;;4.90;4.72;;;;;;;;;;4981996;28;20070;-53
2021/10/07 07:18:40;;;;;;;5.30;5.30;;;;;;;;;;4988737;28;20062;-52
2021/10/07 07:21:08;;;;;;;8.13;8.13;;;;;;;;;;4989657;28;20038;-54
2021/10/07 07:23:35;;;;;;;7.45;7.35;;;;;;;;;;4990695;28;20096;-54
2021/10/07 07:26:02;;;;;;;4.95;4.93;;;;;;;;;;4988947;28;20069;-53
2021/10/07 07:28:29;;;;;;;7.03;7.03;;;;;;;;;;4990516;28;20050;-54
2021/10/07 07:30:56;;;;;;;4.15;4.15;;;;;;;;;;4990495;28;20494;-52
2021/10/07 07:33:25;;;;;;;4.75;4.75;;;;;;;;;;4989122;28;20042;-53
2021/10/07 07:35:51;;;;;;;3.78;3.78;;;;;;;;;;4990925;28;20062;-52
2021/10/07 07:38:18;;;;;;;1.38;1.38;;;;;;;;;;4987680;28;20061;-53
2021/10/07 07:40:45;;;;;;;5.13;5.13;;;;;;;;;;4988468;28;20042;-53
2021/10/07 07:43:18;;;;;;;3.85;3.85;;;;;;;;;;4990417;28;20161;-53
2021/10/07 07:45:49;;;;;;;1.00;1.00;;;;;;;;;;4988334;28;20057;-52
2021/10/07 07:48:16;;;;;;;4.20;4.20;;;;;;;;;;4978667;28;20050;-53
2021/10/07 07:50:42;;;;;;;4.25;4.15;;;;;;;;;;4989561;28;20129;-53
2021/10/07 07:53:10;;;;;;;3.67;3.53;;;;;;;;;;4988792;28;20093;-53
2021/10/07 07:55:37;;;;;;;5.22;5.22;;;;;;;;;;4989513;28;20046;-52
2021/10/07 07:58:04;;;;;;;1.38;1.38;;;;;;;;;;4989572;28;20062;-52
2021/10/07 08:00:31;;;;;;;3.33;3.33;;;;;;;;;;4988921;28;20034;-52
2021/10/07 08:02:58;;;;;;;2.83;2.72;;;;;;;;;;4988688;28;20490;-53
2021/10/07 08:05:25;;;;;;;1.67;1.67;;;;;;;;;;4979305;28;20081;-52
2021/10/07 08:07:52;;;;;;;3.42;3.42;;;;;;;;;;4989393;28;20037;-54
2021/10/07 08:10:19;;;;;;;1.20;1.10;;;;;;;;;;4990424;28;20113;-54
2021/10/07 08:12:46;;;;;;;3.97;3.97;;;;;;;;;;4989572;28;20039;-52
2021/10/07 08:15:13;;;;;;;2.95;2.95;;;;;;;;;;4989397;28;20042;-52
2021/10/07 08:17:40;;;;;;;3.58;2.78;;;;;;;;;;4982465;28;20531;-53
2021/10/07 08:20:08;;;;;;;3.60;3.60;;;;;;;;;;4977533;28;20419;-54
2021/10/07 08:22:35;;;;;;;2.80;2.80;;;;;;;;;;4987828;28;20092;-53
2021/10/07 08:25:02;;;;;;;1.48;1.48;;;;;;;;;;4988408;28;20491;-52
2021/10/07 08:27:29;;;;;;;1.00;1.00;;;;;;;;;;4990241;28;20097;-53
2021/10/07 08:29:56;;;;;;;1.00;1.00;;;;;;;;;;4985348;28;20042;-53
2021/10/07 08:32:23;;;;;;;1.60;1.60;;;;;;;;;;4981978;28;20069;-52
2021/10/07 08:34:50;;;;;;;1.40;1.40;;;;;;;;;;4987441;28;20490;-52
2021/10/07 08:37:17;;;;;;;1.52;1.52;;;;;;;;;;4990131;28;20030;-53
2021/10/07 08:39:44;;;;;;;1.10;1.10;;;;;;;;;;4989582;28;20038;-53
2021/10/07 08:42:10;;;;;;;1.10;1.10;;;;;;;;;;4988622;28;20438;-53
2021/10/07 08:44:37;;;;;;;1.05;1.05;;;;;;;;;;4990614;28;20042;-50
2021/10/07 08:47:03;;;;;;;1.27;1.00;;;;;;;;;;4992071;28;20091;-53
2021/10/07 08:49:36;;;;;;;1.55;1.15;;;;;;;;;;4992319;28;20498;-53
2021/10/07 08:52:03;;;;;;;2.35;2.25;;;;;;;;;;4993825;28;20046;-53
2021/10/07 08:54:33;;;;;;;1.00;1.00;;;;;;;;;;4993951;28;20037;-54
2021/10/07 08:57:01;;;;;;;1.80;1.80;;;;;;;;;;4993371;28;20053;-54
2021/10/07 08:59:28;;;;;;;1.95;1.95;;;;;;;;;;4992013;28;20088;-54
2021/10/07 09:02:00;;;;;;;2.42;2.42;;;;;;;;;;4992782;28;20046;-53
2021/10/07 09:04:29;;;;;;;3.33;3.22;;;;;;;;;;4992789;28;20046;-53
2021/10/07 09:06:57;;;;;;;2.28;2.28;;;;;;;;;;4992494;28;20053;-54
2021/10/07 09:09:27;;;;;;;3.28;3.28;;;;;;;;;;4994298;28;20034;-53
2021/10/07 09:11:55;;;;;;;2.95;2.85;;;;;;;;;;4992973;28;20068;-53
2021/10/07 09:14:23;;;;;;;3.05;3.05;;;;;;;;;;4989544;28;20038;-51
2021/10/07 09:16:50;;;;;;;1.30;1.30;;;;;;;;;;4992221;28;20079;-53
2021/10/07 09:19:25;;;;;;;3.65;3.55;;;;;;;;;;4991686;28;20104;-53
2021/10/07 09:21:53;;;;;;;3.30;3.20;;;;;;;;;;4991776;28;20046;-52
2021/10/07 09:24:30;;;;;;;3.10;3.10;;;;;;;;;;4992258;28;20121;-53
2021/10/07 09:27:04;;;;;;;2.83;2.83;;;;;;;;;;4990976;28;20046;-54
2021/10/07 09:29:36;;;;;;;3.90;3.90;;;;;;;;;;4989351;28;20105;-53
2021/10/07 09:32:04;;;;;;;2.80;2.80;;;;;;;;;;4991045;28;20080;-53
2021/10/07 09:34:57;;;;;;;3.13;1.67;;;;;;;;;;4983643;28;20129;-53
2021/10/07 09:37:25;;;;;;;0.90;0.90;;;;;;;;;;4988694;28;20046;-53
2021/10/07 09:39:53;;;;;;;0.98;0.98;;;;;;;;;;4991258;28;20352;-53
2021/10/07 09:42:21;;;;;;;1.30;1.10;;;;;;;;;;4990348;28;20062;-53
2021/10/07 09:44:58;;;;;;;1.00;1.00;;;;;;;;;;4991037;28;20108;-53
2021/10/07 09:47:29;;;;;;;1.10;1.10;;;;;;;;;;4990895;28;20034;-53
2021/10/07 09:50:09;;;;;;;1.40;0.90;;;;;;;;;;4981701;28;20038;-53
2021/10/07 09:52:37;;;;;;;1.38;1.00;;;;;;;;;;4992920;28;20050;-52
2021/10/07 09:55:09;;;;;;;0.85;0.85;;;;;;;;;;4989884;28;20045;-53
2021/10/07 09:57:46;;;;;;;0.90;0.90;;;;;;;;;;4991559;28;20466;-52
2021/10/07 10:00:13;;;;;;;0.90;0.90;;;;;;;;;;4993460;28;20041;-53
2021/10/07 10:02:40;;;;;;;0.80;0.80;;;;;;;;;;4986532;28;20061;-53
2021/10/07 10:05:09;;;;;;;0.80;0.80;;;;;;;;;;4981898;28;20043;-52
2021/10/07 10:07:36;;;;;;;0.90;0.90;;;;;;;;;;4990046;28;20118;-52
2021/10/07 10:10:04;;;;;;;0.90;0.90;;;;;;;;;;4991305;28;20062;-54
2021/10/07 10:12:30;;;;;;;0.90;0.90;;;;;;;;;;4992447;28;20054;-53
2021/10/07 10:14:57;;;;;;;0.90;0.90;;;;;;;;;;4990300;28;20069;-53
2021/10/07 10:17:26;;;;;;;0.90;0.90;;;;;;;;;;4986245;28;20093;-54
2021/10/07 10:19:54;;;;;;;0.93;0.93;;;;;;;;;;4988739;28;20667;-53
2021/10/07 10:22:22;;;;;;;0.90;0.90;;;;;;;;;;4978381;28;20113;-53
2021/10/07 10:24:49;;;;;;;1.20;1.20;;;;;;;;;;4993063;28;20104;-53
2021/10/07 10:27:17;;;;;;;1.88;1.88;;;;;;;;;;4990063;28;20034;-53
2021/10/07 10:29:43;;;;;;;1.27;1.27;;;;;;;;;;4987765;28;20075;-53
2021/10/07 10:32:13;;;;;;;1.67;1.67;;;;;;;;;;4984586;28;20081;-52
2021/10/07 10:34:41;;;;;;;2.03;2.03;;;;;;;;;;4988317;28;20499;-52
2021/10/07 10:37:09;;;;;;;1.30;1.30;;;;;;;;;;4988903;28;20046;-54
2021/10/07 10:39:39;;;;;;;2.13;2.13;;;;;;;;;;4986496;28;20038;-53
2021/10/07 10:42:18;;;;;;;1.85;1.85;;;;;;;;;;4977184;28;20126;-53
2021/10/07 10:44:51;;;;;;;1.20;1.20;;;;;;;;;;4990144;28;20129;-52
2021/10/07 10:47:22;;;;;;;1.75;1.65;;;;;;;;;;4983384;28;20101;-52
2021/10/07 10:49:55;;;;;;;1.42;1.42;;;;;;;;;;4983031;28;20073;-54
2021/10/07 10:52:30;;;;;;;3.22;3.22;;;;;;;;;;4985138;28;20047;-53
2021/10/07 10:55:02;;;;;;;1.60;1.60;;;;;;;;;;4982624;28;20085;-54
2021/10/07 10:57:44;;;;;;;1.20;1.20;;;;;;;;;;4991444;28;20046;-53
2021/10/07 11:00:10;;;;;;;1.00;1.00;;;;;;;;;;4984570;28;20033;-53
2021/10/07 11:02:38;;;;;;;1.00;1.00;;;;;;;;;;4984291;28;20471;-52
2021/10/07 11:05:16;;;;;;;0.90;0.90;;;;;;;;;;4986533;28;20069;-53
2021/10/07 11:07:43;;;;;;;0.90;0.90;;;;;;;;;;4984866;28;20050;-53
2021/10/07 11:10:15;;;;;;;0.80;0.80;;;;;;;;;;4990159;28;20065;-53
2021/10/07 11:12:46;;;;;;;0.90;0.90;;;;;;;;;;4982483;28;20062;-53
2021/10/07 11:15:13;;;;;;;0.88;0.88;;;;;;;;;;4982751;28;20125;-52
2021/10/07 11:17:44;;;;;;;0.90;0.90;;;;;;;;;;4990846;28;20026;-53
2021/10/07 11:20:15;;;;;;;1.00;1.00;;;;;;;;;;4986413;28;20132;-53
2021/10/07 11:22:58;;;;;;;0.90;0.90;;;;;;;;;;4985273;28;20400;-53
2021/10/07 11:25:26;;;;;;;0.95;0.90;;;;;;;;;;4979254;28;20047;-53
2021/10/07 11:27:58;;;;;;;1.00;1.00;;;;;;;;;;4982618;28;20050;-51
2021/10/07 11:30:24;;;;;;;0.80;0.80;;;;;;;;;;4988041;28;20077;-53
2021/10/07 11:32:51;;;;;;;0.90;0.90;;;;;;;;;;4984662;28;20379;-54
2021/10/07 11:35:20;;;;;;;1.20;1.20;;;;;;;;;;4978209;28;20062;-53
2021/10/07 11:37:52;;;;;;;1.50;1.50;;;;;;;;;;4990338;28;20430;-53
2021/10/07 11:40:25;;;;;;;1.70;1.70;;;;;;;;;;4987173;28;20038;-53
2021/10/07 11:42:52;;;;;;;1.48;1.48;;;;;;;;;;4985078;28;20487;-49
2021/10/07 11:45:19;;;;;;;1.00;1.00;;;;;;;;;;4988283;28;20093;-46
2021/10/07 11:47:46;;;;;;;4.03;4.03;;;;;;;;;;4987052;28;20073;-49
2021/10/07 11:50:14;;;;;;;3.88;3.80;;;;;;;;;;4986940;28;20687;-45
2021/10/07 11:52:40;;;;;;;3.75;3.75;;;;;;;;;;4988802;28;20600;-44
2021/10/07 11:55:07;;;;;;;1.73;1.73;;;;;;;;;;4989079;28;20062;-45
2021/10/07 11:57:34;;;;;;;1.20;1.20;;;;;;;;;;4990025;28;20038;-45
2021/10/07 12:00:00;;;;;;;1.23;1.23;;;;;;;;;;4989826;28;20121;-47
2021/10/07 12:02:30;;;;;;;1.73;1.63;;;;;;;;;;4979225;28;20030;-48
2021/10/07 12:05:18;;;;;;;1.10;1.10;;;;;;;;;;4987584;28;20129;-47
2021/10/07 12:08:00;;;;;;;0.90;0.90;;;;;;;;;;4988504;28;20057;-46
2021/10/07 12:10:34;;;;;;;1.00;1.00;;;;;;;;;;4990085;28;20042;-47
2021/10/07 12:13:05;;;;;;;1.10;1.10;;;;;;;;;;4985910;28;20046;-47
2021/10/07 12:15:32;;;;;;;0.90;0.90;;;;;;;;;;4988868;28;20046;-47
2021/10/07 12:17:58;;;;;;;0.90;0.90;;;;;;;;;;4983804;28;20073;-45
2021/10/07 12:20:26;;;;;;;2.17;2.17;;;;;;;;;;4986231;28;20038;-44
2021/10/07 12:22:58;;;;;;;2.97;2.85;;;;;;;;;;4990323;28;20630;-45
2021/10/07 12:25:26;;;;;;;0.90;0.90;;;;;;;;;;4985533;28;20129;-47
2021/10/07 12:27:59;;;;;;;0.85;0.80;;;;;;;;;;4987533;28;20096;-48
2021/10/07 12:30:26;;;;;;;1.58;1.58;;;;;;;;;;4982670;28;20517;-44
2021/10/07 12:33:08;;;;;;;1.55;1.55;;;;;;;;;;4989099;28;20069;-47
2021/10/07 12:35:36;;;;;;;1.63;1.63;;;;;;;;;;4978780;28;20035;-45
2021/10/07 12:38:02;;;;;;;2.15;2.05;;;;;;;;;;4989996;28;20069;-46
2021/10/07 12:40:29;;;;;;;2.45;2.45;;;;;;;;;;4989735;28;20476;-46
2021/10/07 12:42:56;;;;;;;4.15;4.05;;;;;;;;;;4973061;28;20043;-46
2021/10/07 12:45:23;;;;;;;2.55;2.47;;;;;;;;;;4985629;28;20038;-47
2021/10/07 12:47:59;;;;;;;3.72;3.72;;;;;;;;;;4989591;28;20577;-47
2021/10/07 12:50:33;;;;;;;1.80;1.70;;;;;;;;;;4983262;28;20043;-48
2021/10/07 12:53:01;;;;;;;1.65;1.65;;;;;;;;;;4985240;28;20084;-58
2021/10/07 12:55:28;;;;;;;1.40;1.33;;;;;;;;;;4970617;28;20043;-57
2021/10/07 12:57:58;;;;;;;1.77;0.90;;;;;;;;;;4982516;28;20496;-58
2021/10/07 13:00:32;;;;;;;1.00;1.00;;;;;;;;;;4977475;28;20039;-59
2021/10/07 13:03:00;;;;;;;1.00;1.00;;;;;;;;;;4988642;28;20598;-59
2021/10/07 13:05:28;;;;;;;2.15;1.00;;;;;;;;;;4985202;28;20057;-60
2021/10/07 13:07:56;;;;;;;1.17;0.80;;;;;;;;;;4988620;28;20046;-60
2021/10/07 13:10:27;;;;;;;1.48;1.48;;;;;;;;;;4979291;28;20118;-58
2021/10/07 13:12:54;;;;;;;2.17;2.17;;;;;;;;;;4981557;28;20042;-60
2021/10/07 13:15:20;;;;;;;1.20;1.20;;;;;;;;;;4989118;28;20038;-58
2021/10/07 13:17:47;;;;;;;1.27;1.13;;;;;;;;;;4988985;28;20097;-60
2021/10/07 13:20:15;;;;;;;0.95;0.95;;;;;;;;;;4987280;28;20046;-60
2021/10/07 13:22:42;;;;;;;1.10;1.10;;;;;;;;;;4977448;28;20027;-57
2021/10/07 13:25:12;;;;;;;1.23;1.23;;;;;;;;;;4982543;28;20419;-55
2021/10/07 13:27:43;;;;;;;2.53;1.70;;;;;;;;;;4988444;28;20442;-59
2021/10/07 13:30:14;;;;;;;1.40;1.40;;;;;;;;;;4987171;28;20523;-56
2021/10/07 13:32:44;;;;;;;1.30;1.30;;;;;;;;;;4992401;28;20113;-60
2021/10/07 13:35:11;;;;;;;1.52;1.50;;;;;;;;;;4986463;28;20042;-60
2021/10/07 13:37:38;;;;;;;1.58;1.58;;;;;;;;;;4988768;28;20046;-59
2021/10/07 13:40:06;;;;;;;1.17;1.08;;;;;;;;;;4991554;28;20043;-61
2021/10/07 13:42:32;;;;;;;1.10;1.10;;;;;;;;;;4992777;28;20104;-60
2021/10/07 13:44:59;;;;;;;0.98;0.98;;;;;;;;;;4991202;28;20046;-57
2021/10/07 13:47:25;;;;;;;0.90;0.90;;;;;;;;;;4990895;28;20034;-60
2021/10/07 13:49:52;;;;;;;0.90;0.90;;;;;;;;;;4987925;28;20057;-61
2021/10/07 13:52:19;;;;;;;1.08;1.05;;;;;;;;;;4978882;28;20045;-58
2021/10/07 13:54:46;;;;;;;0.90;0.90;;;;;;;;;;4992070;28;20092;-60
2021/10/07 13:57:13;;;;;;;3.03;1.00;;;;;;;;;;4989192;28;20050;-60
2021/10/07 13:59:39;;;;;;;0.90;0.90;;;;;;;;;;4992816;28;20069;-60
2021/10/07 14:02:06;;;;;;;0.90;0.90;;;;;;;;;;4985228;28;20058;-59
2021/10/07 14:04:33;;;;;;;1.00;1.00;;;;;;;;;;4978325;28;20510;-58
2021/10/07 14:07:00;;;;;;;1.17;1.15;;;;;;;;;;4992121;28;20065;-54
2021/10/07 14:09:27;;;;;;;1.10;1.10;;;;;;;;;;4989646;28;20048;-58
2021/10/07 14:11:53;;;;;;;1.00;1.00;;;;;;;;;;4990448;28;20039;-59
2021/10/07 14:14:20;;;;;;;0.90;0.90;;;;;;;;;;4991352;28;20448;-60
2021/10/07 14:16:47;;;;;;;1.45;1.45;;;;;;;;;;4990319;28;20038;-60
2021/10/07 14:19:14;;;;;;;1.10;1.10;;;;;;;;;;4988556;28;20065;-60
2021/10/07 14:21:40;;;;;;;1.10;1.10;;;;;;;;;;4989099;28;20081;-60
2021/10/07 14:24:07;;;;;;;1.23;1.23;;;;;;;;;;4977453;28;20047;-59
2021/10/07 14:26:34;;;;;;;1.00;1.00;;;;;;;;;;4991906;28;20088;-59
2021/10/07 14:29:01;;;;;;;1.05;1.05;;;;;;;;;;4988437;28;20082;-59
2021/10/07 14:31:28;;;;;;;0.90;0.90;;;;;;;;;;4979468;28;20038;-58
2021/10/07 14:33:54;;;;;;;1.42;1.42;;;;;;;;;;4985893;28;20382;-60
2021/10/07 14:36:21;;;;;;;2.40;2.40;;;;;;;;;;4981602;28;20054;-60
2021/10/07 14:38:48;;;;;;;2.28;2.28;;;;;;;;;;4990193;28;20038;-60
2021/10/07 14:41:14;;;;;;;2.58;2.58;;;;;;;;;;4991118;28;20042;-58
2021/10/07 14:43:41;;;;;;;3.30;3.20;;;;;;;;;;4990516;28;20058;-60
2021/10/07 14:46:08;;;;;;;2.88;2.88;;;;;;;;;;4987355;28;20112;-60
2021/10/07 14:48:34;;;;;;;1.58;1.58;;;;;;;;;;4974865;28;20050;-60
2021/10/07 14:51:01;;;;;;;1.17;1.17;;;;;;;;;;4989093;28;20097;-58
2021/10/07 14:53:28;;;;;;;1.40;1.40;;;;;;;;;;4982794;28;20034;-59
2021/10/07 14:55:55;;;;;;;2.25;2.25;;;;;;;;;;4977027;28;20035;-59